Terminal Aerodrome Forecast
Issued by NWS

Home | Current Version | Previous Version | Text Only | Print | Product List | Glossary On
Versions: 1 2 3 4 5 6 7 8 9 10 11 12 13 14 15 16 17 18 19 20 21
000
FTUS43 KILX 271400 AAA
TAFDEC
TAF AMD
KDEC 271436Z 2715/2812 30006KT P6SM SCT005
      TEMPO 2715/2716 5SM HZ
     FM271600 VRB03KT P6SM SCT025
     FM272100 VRB03KT P6SM BKN200=

USA.gov is the U.S. government's official web portal to all federal, state and local government web resources and services.